createdAt,value
2018-09-25T00:00:06.761Z,8.30
2018-09-25T00:00:46.044Z,8.30
2018-09-25T00:01:24.958Z,8.30
2018-09-25T00:02:03.837Z,8.30
2018-09-25T00:02:42.753Z,8.30
2018-09-25T00:03:21.684Z,8.30
2018-09-25T00:04:00.890Z,8.30
2018-09-25T00:04:39.935Z,8.30
2018-09-25T00:05:18.979Z,8.30
2018-09-25T00:05:58.231Z,8.30
2018-09-25T00:06:37.182Z,8.30
2018-09-25T00:07:16.439Z,8.30
2018-09-25T00:07:55.420Z,8.30
2018-09-25T00:08:34.592Z,8.30
2018-09-25T00:09:15.270Z,8.30
2018-09-25T00:09:54.394Z,8.30
2018-09-25T00:10:33.463Z,8.30
2018-09-25T00:11:12.773Z,8.20
2018-09-25T00:11:51.869Z,8.20
2018-09-25T00:12:31.019Z,8.20
2018-09-25T00:13:10.040Z,8.20
2018-09-25T00:13:49.220Z,8.20
2018-09-25T00:14:28.223Z,8.20
2018-09-25T00:15:07.275Z,8.20
2018-09-25T00:15:46.427Z,8.20
2018-09-25T00:16:25.517Z,8.20
2018-09-25T00:17:04.532Z,8.20
2018-09-25T00:17:43.487Z,8.20
2018-09-25T00:18:22.617Z,8.20
2018-09-25T00:19:01.547Z,8.20
2018-09-25T00:19:40.589Z,8.20
2018-09-25T00:20:19.443Z,8.20
2018-09-25T00:20:58.334Z,8.20
2018-09-25T00:21:37.461Z,8.20
2018-09-25T00:22:16.501Z,8.20
2018-09-25T00:22:55.720Z,8.20
2018-09-25T00:23:34.644Z,8.10
2018-09-25T00:24:13.661Z,8.10
2018-09-25T00:24:53.089Z,8.20
2018-09-25T00:25:32.081Z,8.20
2018-09-25T00:26:11.056Z,8.10
2018-09-25T00:26:50.060Z,8.20
2018-09-25T00:27:29.130Z,8.20
2018-09-25T00:28:08.184Z,8.20
2018-09-25T00:28:47.218Z,8.20
2018-09-25T00:29:26.384Z,8.20
2018-09-25T00:30:05.454Z,8.20
2018-09-25T00:30:44.420Z,8.20
2018-09-25T00:31:23.409Z,8.20
2018-09-25T00:32:02.538Z,8.20
2018-09-25T00:32:41.400Z,8.20
2018-09-25T00:33:20.559Z,8.20
2018-09-25T00:33:59.838Z,8.20
2018-09-25T00:34:38.866Z,8.20
2018-09-25T00:35:17.898Z,8.20
2018-09-25T00:35:57.072Z,8.20
2018-09-25T00:36:36.076Z,8.20
2018-09-25T00:37:15.208Z,8.20
2018-09-25T00:37:54.168Z,8.20
2018-09-25T00:38:33.055Z,8.20
2018-09-25T00:39:14.267Z,8.20
2018-09-25T00:39:53.187Z,8.20
2018-09-25T00:40:32.243Z,8.20
2018-09-25T00:41:11.531Z,8.20
2018-09-25T00:41:50.422Z,8.20
2018-09-25T00:42:29.687Z,8.20
2018-09-25T00:43:08.630Z,8.20
2018-09-25T00:43:47.681Z,8.10
2018-09-25T00:44:26.554Z,8.10
2018-09-25T00:45:05.626Z,8.10
2018-09-25T00:45:44.900Z,8.20
2018-09-25T00:46:24.096Z,8.20
2018-09-25T00:47:03.398Z,8.20
2018-09-25T00:47:42.437Z,8.20
2018-09-25T00:48:21.576Z,8.20
2018-09-25T00:49:00.532Z,8.30
2018-09-25T00:49:39.430Z,8.30
2018-09-25T00:50:18.843Z,8.30
2018-09-25T00:50:57.944Z,8.30
2018-09-25T00:51:36.864Z,8.30
2018-09-25T00:52:15.794Z,8.30
2018-09-25T00:52:54.889Z,8.30
2018-09-25T00:53:33.792Z,8.30
2018-09-25T00:54:13.029Z,8.30
2018-09-25T00:54:51.957Z,8.30
2018-09-25T00:55:30.841Z,8.40
2018-09-25T00:56:09.776Z,8.30
2018-09-25T00:56:48.761Z,8.40
2018-09-25T00:57:27.912Z,8.40
2018-09-25T00:58:07.010Z,8.40
2018-09-25T00:58:45.879Z,8.40
2018-09-25T00:59:25.078Z,8.40
2018-09-25T01:00:04.230Z,8.40
2018-09-25T01:00:43.032Z,8.40
2018-09-25T01:01:22.001Z,8.50
2018-09-25T01:02:01.133Z,8.50
2018-09-25T01:02:40.467Z,8.50
2018-09-25T01:03:19.568Z,8.50
2018-09-25T01:03:59.031Z,8.50
2018-09-25T01:04:38.161Z,8.50
2018-09-25T01:05:17.005Z,8.50
2018-09-25T01:05:56.137Z,8.50
2018-09-25T01:06:35.258Z,8.50
2018-09-25T01:07:14.405Z,8.60
2018-09-25T01:07:53.527Z,8.50
2018-09-25T01:08:32.537Z,8.60
2018-09-25T01:09:13.290Z,8.60
2018-09-25T01:09:52.424Z,8.60
2018-09-25T01:10:31.401Z,8.50
2018-09-25T01:11:10.363Z,8.50
2018-09-25T01:11:49.298Z,8.50
2018-09-25T01:12:28.397Z,8.50
2018-09-25T01:13:07.361Z,8.50
2018-09-25T01:13:46.492Z,8.60
2018-09-25T01:14:25.511Z,8.60
2018-09-25T01:15:04.549Z,8.60
2018-09-25T01:15:43.372Z,8.60
2018-09-25T01:16:22.416Z,8.60
2018-09-25T01:17:01.299Z,8.60
2018-09-25T01:17:40.410Z,8.50
2018-09-25T01:18:19.482Z,8.60
2018-09-25T01:18:58.748Z,8.60
2018-09-25T01:19:37.664Z,8.60
2018-09-25T01:20:16.790Z,8.60
2018-09-25T01:20:56.100Z,8.60
2018-09-25T01:21:35.189Z,8.60
2018-09-25T01:22:14.439Z,8.60
2018-09-25T01:22:53.667Z,8.50
2018-09-25T01:23:32.976Z,8.50
2018-09-25T01:24:12.155Z,8.60
2018-09-25T01:24:51.402Z,8.50
2018-09-25T01:25:30.426Z,8.60
2018-09-25T01:26:09.655Z,8.60
2018-09-25T01:26:49.058Z,8.60
2018-09-25T01:27:28.120Z,8.60
2018-09-25T01:28:06.981Z,8.60
2018-09-25T01:28:45.917Z,8.60
2018-09-25T01:29:24.858Z,8.60
2018-09-25T01:30:03.797Z,8.60
2018-09-25T01:30:42.679Z,8.60
2018-09-25T01:31:21.719Z,8.60
2018-09-25T01:32:00.739Z,8.60
2018-09-25T01:32:39.602Z,8.60
2018-09-25T01:33:18.561Z,8.60
2018-09-25T01:33:57.639Z,8.60
2018-09-25T01:34:36.536Z,8.60
2018-09-25T01:35:15.478Z,8.60
2018-09-25T01:35:54.424Z,8.60
2018-09-25T01:36:33.401Z,8.60
2018-09-25T01:37:12.181Z,8.60
2018-09-25T01:37:51.307Z,8.60
2018-09-25T01:38:30.253Z,8.60
2018-09-25T01:39:10.972Z,8.60
2018-09-25T01:39:50.040Z,8.60
2018-09-25T01:40:29.038Z,8.60
2018-09-25T01:41:07.866Z,8.60
2018-09-25T01:41:46.993Z,8.60
2018-09-25T01:42:25.991Z,8.60
2018-09-25T01:43:04.853Z,8.60
2018-09-25T01:43:43.918Z,8.60
2018-09-25T01:44:23.018Z,8.60
2018-09-25T01:45:02.231Z,8.60
2018-09-25T01:45:41.425Z,8.60
2018-09-25T01:46:20.495Z,8.60
2018-09-25T01:46:59.517Z,8.60
2018-09-25T01:47:38.673Z,8.60
2018-09-25T01:48:17.869Z,8.60
2018-09-25T01:48:57.018Z,8.60
2018-09-25T01:49:36.217Z,8.60
2018-09-25T01:50:15.239Z,8.50
2018-09-25T01:50:54.360Z,8.60
2018-09-25T01:51:33.208Z,8.60
2018-09-25T01:52:12.137Z,8.50
2018-09-25T01:52:51.271Z,8.60
2018-09-25T01:53:30.486Z,8.50
2018-09-25T01:54:09.638Z,8.50
2018-09-25T01:54:48.574Z,8.50
2018-09-25T01:55:27.647Z,8.50
2018-09-25T01:56:06.756Z,8.50
2018-09-25T01:56:45.736Z,8.50
2018-09-25T01:57:24.760Z,8.50
2018-09-25T01:58:03.694Z,8.50
2018-09-25T01:58:42.744Z,8.50
2018-09-25T01:59:21.724Z,8.50
2018-09-25T02:00:01.020Z,8.40
2018-09-25T02:00:40.067Z,8.40
2018-09-25T02:01:19.247Z,8.40
2018-09-25T02:01:58.400Z,8.40
2018-09-25T02:02:37.349Z,8.40
2018-09-25T02:03:16.573Z,8.40
2018-09-25T02:03:55.484Z,8.40
2018-09-25T02:04:34.488Z,8.40
2018-09-25T02:05:13.600Z,8.40
2018-09-25T02:05:52.570Z,8.40
2018-09-25T02:06:31.587Z,8.40
2018-09-25T02:07:10.559Z,8.40
2018-09-25T02:07:49.398Z,8.40
2018-09-25T02:08:28.267Z,8.40
2018-09-25T02:09:07.224Z,8.40
2018-09-25T02:09:46.324Z,8.40
2018-09-25T02:10:25.265Z,8.40
2018-09-25T02:11:04.293Z,8.40
2018-09-25T02:11:43.181Z,8.40
2018-09-25T02:12:22.164Z,8.40
2018-09-25T02:13:01.241Z,8.40
2018-09-25T02:13:40.320Z,8.40
2018-09-25T02:14:19.476Z,8.40
2018-09-25T02:14:58.401Z,8.40
2018-09-25T02:15:37.699Z,8.40
2018-09-25T02:16:16.693Z,8.40
2018-09-25T02:16:55.871Z,8.40
2018-09-25T02:17:34.868Z,8.30
2018-09-25T02:18:14.017Z,8.30
2018-09-25T02:18:53.225Z,8.30
2018-09-25T02:19:32.044Z,8.30
2018-09-25T02:20:11.349Z,8.30
2018-09-25T02:20:50.301Z,8.30
2018-09-25T02:21:29.272Z,8.30
2018-09-25T02:22:08.638Z,8.20
2018-09-25T02:22:47.629Z,8.30
2018-09-25T02:23:26.788Z,8.20
2018-09-25T02:24:05.965Z,8.20
2018-09-25T02:24:45.663Z,8.20
2018-09-25T02:25:24.814Z,8.20
2018-09-25T02:26:04.176Z,8.20
2018-09-25T02:26:43.365Z,8.10
2018-09-25T02:27:22.393Z,8.10
2018-09-25T02:28:01.438Z,8.20
2018-09-25T02:28:40.403Z,8.10
2018-09-25T02:29:19.620Z,8.10
2018-09-25T02:29:59.100Z,8.10
2018-09-25T02:30:38.073Z,8.10
2018-09-25T02:31:17.276Z,8.10
2018-09-25T02:31:56.505Z,8.10
2018-09-25T02:32:35.676Z,8.20
2018-09-25T02:33:14.621Z,8.10
2018-09-25T02:33:53.637Z,8.10
2018-09-25T02:34:32.696Z,8.10
2018-09-25T02:35:11.887Z,8.10
2018-09-25T02:35:57.753Z,8.00
2018-09-25T02:36:36.937Z,8.00
2018-09-25T02:37:15.891Z,8.00
2018-09-25T02:37:54.944Z,8.00
2018-09-25T02:38:34.011Z,8.00
2018-09-25T02:39:15.420Z,8.00
2018-09-25T02:39:54.646Z,8.00
2018-09-25T02:40:33.679Z,8.00
2018-09-25T02:41:12.817Z,8.00
2018-09-25T02:41:51.817Z,8.00
2018-09-25T02:42:31.143Z,8.00
2018-09-25T02:43:10.088Z,8.00
2018-09-25T02:43:49.113Z,8.00
2018-09-25T02:44:28.205Z,8.00
2018-09-25T02:45:07.257Z,8.00
2018-09-25T02:45:46.392Z,7.90
2018-09-25T02:46:25.225Z,8.00
2018-09-25T02:47:04.502Z,8.00
2018-09-25T02:47:43.671Z,7.90
2018-09-25T02:48:22.828Z,8.00
2018-09-25T02:49:01.933Z,7.90
2018-09-25T02:49:40.913Z,7.90
2018-09-25T02:50:19.959Z,7.90
2018-09-25T02:50:59.099Z,7.90
2018-09-25T02:51:38.200Z,7.90
2018-09-25T02:52:17.271Z,7.90
2018-09-25T02:52:56.288Z,7.90
2018-09-25T02:53:35.356Z,7.90
2018-09-25T02:54:14.332Z,7.90
2018-09-25T02:54:53.380Z,7.90
2018-09-25T02:55:32.455Z,7.90
2018-09-25T02:56:11.807Z,7.90
2018-09-25T02:56:51.040Z,7.90
2018-09-25T02:57:29.963Z,7.90
2018-09-25T02:58:09.160Z,7.90
2018-09-25T02:58:48.195Z,7.90
2018-09-25T02:59:27.135Z,7.90
2018-09-25T03:00:05.988Z,7.90
2018-09-25T03:00:45.020Z,7.90
2018-09-25T03:01:24.144Z,7.90
2018-09-25T03:02:03.290Z,7.90
2018-09-25T03:02:42.481Z,7.90
2018-09-25T03:03:21.549Z,7.90
2018-09-25T03:04:00.616Z,7.90
2018-09-25T03:04:39.527Z,7.90
2018-09-25T03:05:18.541Z,7.90
2018-09-25T03:05:57.620Z,7.90
2018-09-25T03:06:36.656Z,7.90
2018-09-25T03:07:15.671Z,7.90
2018-09-25T03:07:54.613Z,7.90
2018-09-25T03:08:33.818Z,7.90
2018-09-25T03:09:13.553Z,7.80
2018-09-25T03:09:52.670Z,7.90
2018-09-25T03:10:31.714Z,7.80
2018-09-25T03:11:11.180Z,7.80
2018-09-25T03:11:50.190Z,7.90
2018-09-25T03:12:29.238Z,7.90
2018-09-25T03:13:08.256Z,7.90
2018-09-25T03:13:47.169Z,7.90
2018-09-25T03:14:26.382Z,7.90
2018-09-25T03:15:05.245Z,7.80
2018-09-25T03:15:44.207Z,7.80
2018-09-25T03:16:23.143Z,7.80
2018-09-25T03:17:02.037Z,7.80
2018-09-25T03:17:41.071Z,7.80
2018-09-25T03:18:19.962Z,7.80
2018-09-25T03:18:58.808Z,7.80
2018-09-25T03:19:37.907Z,7.80
2018-09-25T03:20:17.173Z,7.80
2018-09-25T03:20:56.332Z,7.80
2018-09-25T03:21:35.190Z,7.80
2018-09-25T03:22:14.052Z,7.80
2018-09-25T03:22:53.066Z,7.80
2018-09-25T03:23:32.151Z,7.80
2018-09-25T03:24:11.148Z,7.80
2018-09-25T03:24:50.129Z,7.80
2018-09-25T03:25:29.239Z,7.80
2018-09-25T03:26:08.244Z,7.80
2018-09-25T03:26:47.002Z,7.80
2018-09-25T03:27:25.957Z,7.80
2018-09-25T03:28:04.873Z,7.80
2018-09-25T03:28:43.861Z,7.80
2018-09-25T03:29:23.026Z,7.80
2018-09-25T03:30:02.351Z,7.80
2018-09-25T03:30:41.380Z,7.80
2018-09-25T03:31:20.464Z,7.80
2018-09-25T03:31:59.682Z,7.80
2018-09-25T03:32:38.920Z,7.80
2018-09-25T03:33:18.260Z,7.80
2018-09-25T03:34:36.840Z,7.80
2018-09-25T03:35:15.793Z,7.80
2018-09-25T03:35:54.718Z,7.80
2018-09-25T03:36:33.736Z,7.80
2018-09-25T03:37:12.967Z,7.80
2018-09-25T03:37:51.955Z,7.80
2018-09-25T03:38:31.182Z,7.80
2018-09-25T03:39:13.215Z,7.80
2018-09-25T03:39:52.490Z,7.80
2018-09-25T03:40:31.510Z,7.70
2018-09-25T03:41:10.439Z,7.70
2018-09-25T03:41:49.544Z,7.70
2018-09-25T03:42:28.906Z,7.70
2018-09-25T03:43:07.913Z,7.70
2018-09-25T03:43:47.051Z,7.70
2018-09-25T03:44:25.905Z,7.70
2018-09-25T03:45:05.125Z,7.70
2018-09-25T03:45:44.180Z,7.70
2018-09-25T03:46:23.240Z,7.70
2018-09-25T03:47:02.351Z,7.70
2018-09-25T03:47:41.646Z,7.70
2018-09-25T03:48:20.712Z,7.70
2018-09-25T03:48:59.774Z,7.70
2018-09-25T03:49:38.889Z,7.70
2018-09-25T03:50:18.137Z,7.70
2018-09-25T03:50:57.320Z,7.70
2018-09-25T03:51:36.436Z,7.70
2018-09-25T03:52:15.437Z,7.70
2018-09-25T03:52:54.472Z,7.70
2018-09-25T03:53:33.671Z,7.70
2018-09-25T03:54:12.607Z,7.70
2018-09-25T03:54:51.596Z,7.70
2018-09-25T03:55:30.874Z,7.70
2018-09-25T03:56:09.851Z,7.70
2018-09-25T03:56:48.936Z,7.70
2018-09-25T03:57:28.157Z,7.60
2018-09-25T03:58:07.275Z,7.70
2018-09-25T03:58:46.280Z,7.70
2018-09-25T03:59:25.514Z,7.70
2018-09-25T04:00:04.691Z,7.70
2018-09-25T04:00:43.784Z,7.70
2018-09-25T04:01:22.819Z,7.60
2018-09-25T04:02:01.853Z,7.60
2018-09-25T04:02:40.754Z,7.60
2018-09-25T04:03:19.698Z,7.60
2018-09-25T04:03:58.779Z,7.60
2018-09-25T04:04:37.847Z,7.60
2018-09-25T04:05:16.750Z,7.60
2018-09-25T04:05:55.801Z,7.50
2018-09-25T04:06:34.914Z,7.60
2018-09-25T04:07:14.398Z,7.50
2018-09-25T04:07:53.652Z,7.50
2018-09-25T04:08:32.940Z,7.50
2018-09-25T04:09:12.754Z,7.50
2018-09-25T04:09:51.725Z,7.50
2018-09-25T04:10:30.916Z,7.50
2018-09-25T04:11:10.232Z,7.50
2018-09-25T04:11:49.168Z,7.50
2018-09-25T04:12:28.223Z,7.50
2018-09-25T04:13:07.162Z,7.50
2018-09-25T04:13:46.016Z,7.50
2018-09-25T04:14:25.000Z,7.50
2018-09-25T04:15:03.953Z,7.50
2018-09-25T04:15:43.081Z,7.50
2018-09-25T04:16:22.173Z,7.50
2018-09-25T04:17:01.291Z,7.50
2018-09-25T04:17:40.543Z,7.50
2018-09-25T04:18:19.503Z,7.50
2018-09-25T04:18:58.495Z,7.50
2018-09-25T04:19:37.601Z,7.60
2018-09-25T04:20:17.063Z,7.60
2018-09-25T04:20:56.104Z,7.60
2018-09-25T04:21:35.047Z,7.60
2018-09-25T04:22:13.777Z,7.60
2018-09-25T04:22:52.657Z,7.60
2018-09-25T04:23:31.856Z,7.60
2018-09-25T04:24:10.893Z,7.60
2018-09-25T04:24:49.825Z,7.60
2018-09-25T04:25:28.829Z,7.60
2018-09-25T04:26:07.873Z,7.60
2018-09-25T04:26:46.585Z,7.60
2018-09-25T04:27:25.557Z,7.60
2018-09-25T04:28:04.515Z,7.60
2018-09-25T04:28:43.435Z,7.60
2018-09-25T04:29:22.475Z,7.60
2018-09-25T04:30:01.447Z,7.60
2018-09-25T04:30:40.552Z,7.60
2018-09-25T04:31:19.582Z,7.60
2018-09-25T04:31:58.519Z,7.60
2018-09-25T04:32:37.621Z,7.60
2018-09-25T04:33:16.596Z,7.60
2018-09-25T04:33:55.442Z,7.60
2018-09-25T04:34:34.593Z,7.60
2018-09-25T04:35:13.766Z,7.70
2018-09-25T04:35:52.855Z,7.70
2018-09-25T04:36:32.031Z,7.70
2018-09-25T04:37:11.177Z,7.70
2018-09-25T04:37:50.349Z,7.70
2018-09-25T04:38:29.583Z,7.70
2018-09-25T04:39:08.856Z,7.70
2018-09-25T04:39:47.836Z,7.70
2018-09-25T04:40:26.881Z,7.70
2018-09-25T04:41:05.860Z,7.70
2018-09-25T04:41:44.984Z,7.70
2018-09-25T04:42:24.029Z,7.70
2018-09-25T04:43:03.367Z,7.70
2018-09-25T04:43:42.389Z,7.70
2018-09-25T04:44:21.685Z,7.70
2018-09-25T04:45:00.715Z,7.70
2018-09-25T04:45:39.691Z,7.70
2018-09-25T04:46:18.879Z,7.70
2018-09-25T04:46:57.887Z,7.70
2018-09-25T04:47:36.940Z,7.70
2018-09-25T04:48:16.001Z,7.70
2018-09-25T04:48:55.016Z,7.70
2018-09-25T04:49:33.951Z,7.70
2018-09-25T04:50:13.158Z,7.70
2018-09-25T04:50:52.264Z,7.70
2018-09-25T04:51:35.018Z,7.70
2018-09-25T04:52:14.817Z,7.70
2018-09-25T04:52:54.996Z,7.70
2018-09-25T04:53:36.221Z,7.70
2018-09-25T04:54:16.683Z,7.70
2018-09-25T04:54:55.854Z,7.70
2018-09-25T04:55:35.820Z,7.70
2018-09-25T04:56:14.924Z,7.70
2018-09-25T04:56:57.203Z,7.70
2018-09-25T04:57:40.597Z,7.70
2018-09-25T04:58:19.748Z,7.60
2018-09-25T04:58:59.048Z,7.60
2018-09-25T04:59:38.043Z,7.60
2018-09-25T05:00:17.310Z,7.60
2018-09-25T05:00:56.523Z,7.60
2018-09-25T05:01:35.646Z,7.70
2018-09-25T05:02:14.945Z,7.60
2018-09-25T05:02:53.884Z,7.70
2018-09-25T05:03:32.959Z,7.60
2018-09-25T05:04:11.857Z,7.70
2018-09-25T05:04:50.899Z,7.60
2018-09-25T05:05:29.761Z,7.70
2018-09-25T05:06:08.958Z,7.70
2018-09-25T05:06:47.873Z,7.70
2018-09-25T05:07:26.797Z,7.70
2018-09-25T05:08:05.902Z,7.70
2018-09-25T05:08:44.839Z,7.70
2018-09-25T05:09:23.820Z,7.80
2018-09-25T05:10:02.893Z,7.80
2018-09-25T05:10:42.009Z,7.80
2018-09-25T05:11:21.188Z,7.90
2018-09-25T05:12:00.428Z,7.90
2018-09-25T05:12:39.708Z,7.90
2018-09-25T05:13:18.879Z,7.90
2018-09-25T05:13:58.010Z,8.00
2018-09-25T05:19:48.471Z,8.00
2018-09-25T05:20:27.365Z,7.60
2018-09-25T05:21:06.329Z,7.50
2018-09-25T05:21:45.523Z,7.60
2018-09-25T05:22:24.588Z,7.60
2018-09-25T05:23:03.755Z,7.60
2018-09-25T05:23:42.793Z,7.70
2018-09-25T05:24:21.807Z,7.70
2018-09-25T05:25:00.985Z,7.70
2018-09-25T05:25:39.883Z,7.80
2018-09-25T05:26:18.945Z,7.80
2018-09-25T05:26:57.925Z,7.90
2018-09-25T05:27:36.917Z,7.90
2018-09-25T05:28:19.760Z,7.90
2018-09-25T05:28:58.913Z,8.00
2018-09-25T05:29:37.809Z,8.00
2018-09-25T05:30:18.457Z,8.00
2018-09-25T05:30:57.340Z,8.10
2018-09-25T05:31:36.262Z,8.10
2018-09-25T05:32:15.278Z,8.10
2018-09-25T05:32:55.844Z,8.10
2018-09-25T05:33:35.605Z,8.10
2018-09-25T05:34:14.738Z,8.10
2018-09-25T05:34:53.908Z,8.20
2018-09-25T05:35:33.040Z,8.20
2018-09-25T05:36:12.760Z,8.20
2018-09-25T05:36:51.832Z,8.20
2018-09-25T05:37:30.968Z,8.20
2018-09-25T05:38:09.997Z,8.20
2018-09-25T05:38:49.001Z,8.20
2018-09-25T05:39:28.192Z,8.30
2018-09-25T05:40:07.704Z,8.30
2018-09-25T05:40:46.670Z,8.30
2018-09-25T05:41:25.479Z,8.30
2018-09-25T05:42:04.449Z,8.30
2018-09-25T05:42:43.464Z,8.30
2018-09-25T05:43:22.506Z,8.30
2018-09-25T05:44:01.352Z,8.30
2018-09-25T05:44:40.439Z,8.30
2018-09-25T05:45:19.407Z,8.30
2018-09-25T05:46:03.030Z,8.30
2018-09-25T05:46:42.057Z,8.30
2018-09-25T05:47:21.126Z,8.30
2018-09-25T05:48:00.116Z,8.30
2018-09-25T05:48:39.048Z,8.30
2018-09-25T05:49:18.012Z,8.30
2018-09-25T05:49:56.929Z,8.30
2018-09-25T05:50:36.051Z,8.30
2018-09-25T05:51:15.100Z,8.20
2018-09-25T05:51:54.027Z,8.20
2018-09-25T05:52:32.849Z,8.20
2018-09-25T05:53:11.895Z,8.20
2018-09-25T05:53:50.969Z,8.20
2018-09-25T05:54:29.892Z,8.20
2018-09-25T05:55:09.829Z,8.20
2018-09-25T05:55:48.695Z,8.20
2018-09-25T05:56:27.889Z,8.20
2018-09-25T05:57:06.836Z,8.20
2018-09-25T05:57:46.585Z,8.20
2018-09-25T05:58:30.439Z,8.20
2018-09-25T05:59:09.613Z,8.20
2018-09-25T05:59:48.598Z,8.20
2018-09-25T06:00:27.695Z,8.20
2018-09-25T06:01:06.847Z,8.20
2018-09-25T06:01:46.060Z,8.20
2018-09-25T06:02:25.205Z,8.20
2018-09-25T06:03:04.383Z,8.20
2018-09-25T06:03:43.410Z,8.20
2018-09-25T06:04:22.670Z,8.20
2018-09-25T06:05:01.947Z,8.20
2018-09-25T06:05:40.968Z,8.20
2018-09-25T06:06:20.088Z,8.30
2018-09-25T06:06:59.192Z,8.20
2018-09-25T06:07:38.417Z,8.30
2018-09-25T06:08:18.209Z,8.30
2018-09-25T06:08:57.321Z,8.30
2018-09-25T06:09:36.456Z,8.30
2018-09-25T06:10:15.557Z,8.30
2018-09-25T06:10:54.569Z,8.30
2018-09-25T06:11:33.623Z,8.30
2018-09-25T06:12:12.695Z,8.30
2018-09-25T06:12:51.704Z,8.40
2018-09-25T06:13:30.775Z,8.40
2018-09-25T06:14:09.989Z,8.40
2018-09-25T06:14:48.960Z,8.40
2018-09-25T06:15:27.931Z,8.40
2018-09-25T06:16:06.965Z,8.40
2018-09-25T06:16:46.053Z,8.40
2018-09-25T06:17:25.319Z,8.40
2018-09-25T06:18:04.317Z,8.50
2018-09-25T06:18:43.539Z,8.50
2018-09-25T06:19:22.519Z,8.50
2018-09-25T06:20:01.512Z,8.60
2018-09-25T06:20:40.462Z,8.60
2018-09-25T06:21:19.408Z,8.60
2018-09-25T06:21:58.675Z,8.60
2018-09-25T06:22:37.780Z,8.60
2018-09-25T06:23:16.812Z,8.60
2018-09-25T06:23:55.955Z,8.70
2018-09-25T06:24:34.934Z,8.70
2018-09-25T06:25:13.991Z,8.70
2018-09-25T06:25:53.045Z,8.70
2018-09-25T06:26:32.060Z,8.80
2018-09-25T06:27:11.017Z,8.80
2018-09-25T06:27:50.196Z,8.80
2018-09-25T06:28:29.192Z,8.80
2018-09-25T06:29:08.259Z,8.80
2018-09-25T06:29:47.139Z,8.80
2018-09-25T06:30:26.214Z,8.90
2018-09-25T06:31:05.532Z,8.90
2018-09-25T06:31:44.672Z,8.90
2018-09-25T06:32:23.725Z,8.90
2018-09-25T06:33:02.753Z,8.90
2018-09-25T06:33:41.907Z,8.90
2018-09-25T06:34:20.855Z,9.00
2018-09-25T06:35:00.213Z,9.00
2018-09-25T06:35:39.408Z,9.00
2018-09-25T06:36:19.137Z,9.00
2018-09-25T06:36:58.244Z,9.00
2018-09-25T06:37:37.370Z,9.00
2018-09-25T06:38:16.364Z,9.00
2018-09-25T06:38:55.579Z,9.00
2018-09-25T06:39:34.588Z,9.00
2018-09-25T06:40:14.042Z,9.10
2018-09-25T06:40:53.296Z,9.10
2018-09-25T06:41:32.305Z,9.10
2018-09-25T06:42:11.576Z,9.10
2018-09-25T06:42:50.610Z,9.10
2018-09-25T06:43:29.801Z,9.10
2018-09-25T06:44:08.815Z,9.10
2018-09-25T06:44:47.716Z,9.20
2018-09-25T06:45:26.885Z,9.20
2018-09-25T06:46:05.859Z,9.20
2018-09-25T06:46:44.796Z,9.20
2018-09-25T06:47:23.692Z,9.30
2018-09-25T06:48:02.601Z,9.30
2018-09-25T06:48:41.516Z,9.30
2018-09-25T06:49:20.791Z,9.30
2018-09-25T06:50:00.009Z,9.40
2018-09-25T06:50:39.028Z,9.40
2018-09-25T06:51:18.207Z,9.40
2018-09-25T06:51:57.294Z,9.40
2018-09-25T06:52:36.426Z,9.40
2018-09-25T06:53:15.368Z,9.40
2018-09-25T06:53:54.327Z,9.50
2018-09-25T06:54:33.416Z,9.50
2018-09-25T06:55:12.482Z,9.50
2018-09-25T06:55:51.503Z,9.60
2018-09-25T06:56:30.416Z,9.60
2018-09-25T06:57:09.610Z,9.60
2018-09-25T06:57:48.647Z,9.70
2018-09-25T06:58:27.616Z,9.70
2018-09-25T06:59:06.701Z,9.70
2018-09-25T06:59:46.026Z,9.70
2018-09-25T07:00:25.271Z,9.80
2018-09-25T07:01:04.430Z,9.80
2018-09-25T07:01:43.308Z,9.80
2018-09-25T07:02:22.360Z,9.80
2018-09-25T07:03:01.477Z,9.90
2018-09-25T07:03:40.577Z,9.90
2018-09-25T07:04:19.837Z,9.90
2018-09-25T07:04:59.399Z,9.90
2018-09-25T07:05:38.653Z,9.90
2018-09-25T07:06:17.702Z,9.90
2018-09-25T07:06:56.899Z,9.90
2018-09-25T07:07:35.927Z,10.00
2018-09-25T07:08:15.297Z,10.00
2018-09-25T07:08:54.253Z,10.00
2018-09-25T07:09:33.457Z,10.10
2018-09-25T07:10:13.457Z,10.10
2018-09-25T07:10:52.442Z,10.10
2018-09-25T07:11:31.532Z,10.10
2018-09-25T07:12:10.613Z,10.10
2018-09-25T07:12:49.768Z,10.20
2018-09-25T07:13:28.600Z,10.20
2018-09-25T07:14:07.932Z,10.20
2018-09-25T07:14:47.319Z,10.30
2018-09-25T07:15:26.360Z,10.30
2018-09-25T07:16:05.385Z,10.30
2018-09-25T07:16:44.387Z,10.30
2018-09-25T07:17:23.417Z,10.30
2018-09-25T07:18:02.546Z,10.30
2018-09-25T07:18:41.535Z,10.30
2018-09-25T07:19:20.462Z,10.30
2018-09-25T07:19:59.511Z,10.30
2018-09-25T07:20:38.410Z,10.30
2018-09-25T07:21:17.636Z,10.30
2018-09-25T07:21:56.894Z,10.40
2018-09-25T07:22:35.856Z,10.40
2018-09-25T07:23:15.061Z,10.50
2018-09-25T07:23:54.131Z,10.50
2018-09-25T07:24:33.205Z,10.50
2018-09-25T07:25:12.742Z,10.50
2018-09-25T07:25:51.990Z,10.50
2018-09-25T07:26:31.349Z,10.60
2018-09-25T07:27:10.879Z,10.60
2018-09-25T07:27:50.506Z,10.60
2018-09-25T07:28:29.671Z,10.60
2018-09-25T07:29:09.037Z,10.70
2018-09-25T07:29:48.498Z,10.70
2018-09-25T07:30:27.767Z,10.70
2018-09-25T07:31:06.805Z,10.70
2018-09-25T07:31:46.227Z,10.80
2018-09-25T07:32:25.314Z,10.80
2018-09-25T07:33:04.580Z,10.80
2018-09-25T07:33:43.746Z,10.80
2018-09-25T07:34:22.985Z,10.90
2018-09-25T07:35:02.290Z,10.90
2018-09-25T07:35:41.277Z,10.90
2018-09-25T07:36:20.657Z,10.90
2018-09-25T07:36:59.867Z,10.90
2018-09-25T07:37:39.037Z,11.00
2018-09-25T07:38:18.130Z,11.00
2018-09-25T07:38:57.240Z,11.00
2018-09-25T07:39:36.289Z,11.00
2018-09-25T07:40:15.419Z,11.10
2018-09-25T07:40:54.671Z,11.10
2018-09-25T07:41:33.841Z,11.00
2018-09-25T07:42:12.991Z,11.10
2018-09-25T07:42:52.239Z,11.10
2018-09-25T07:43:31.095Z,11.20
2018-09-25T07:44:10.613Z,11.20
2018-09-25T07:44:49.697Z,11.20
2018-09-25T07:45:28.672Z,11.20
2018-09-25T07:46:07.698Z,11.20
2018-09-25T07:46:46.772Z,11.30
2018-09-25T07:47:26.049Z,11.30
2018-09-25T07:48:05.242Z,11.30
2018-09-25T07:48:44.473Z,11.30
2018-09-25T07:49:23.807Z,11.40
2018-09-25T07:50:02.823Z,11.40
2018-09-25T07:50:42.153Z,11.40
2018-09-25T07:51:21.066Z,11.40
2018-09-25T07:52:00.093Z,11.50
2018-09-25T07:52:39.281Z,11.50
2018-09-25T07:53:18.441Z,11.50
2018-09-25T07:53:57.419Z,11.60
2018-09-25T07:54:36.324Z,11.60
2018-09-25T07:55:15.267Z,11.60
2018-09-25T07:55:54.268Z,11.70
2018-09-25T07:56:33.280Z,11.70
2018-09-25T07:57:13.182Z,11.80
2018-09-25T07:57:52.022Z,11.80
2018-09-25T07:58:31.138Z,11.90
2018-09-25T07:59:10.364Z,11.90
2018-09-25T07:59:49.379Z,11.90
2018-09-25T08:00:28.466Z,11.90
2018-09-25T08:01:07.735Z,11.90
2018-09-25T08:01:46.816Z,11.90
2018-09-25T08:02:26.128Z,11.90
2018-09-25T08:03:05.153Z,11.90
2018-09-25T08:03:44.360Z,11.90
2018-09-25T08:04:23.523Z,12.00
2018-09-25T08:05:02.840Z,12.00
2018-09-25T08:05:42.009Z,12.00
2018-09-25T08:06:21.281Z,12.10
2018-09-25T08:07:00.448Z,12.10
2018-09-25T08:07:39.321Z,12.10
2018-09-25T08:08:18.231Z,12.10
2018-09-25T08:08:57.270Z,12.00
2018-09-25T08:09:36.647Z,12.00
2018-09-25T08:10:15.837Z,12.00
2018-09-25T08:10:54.812Z,12.00
2018-09-25T08:11:33.805Z,12.10
2018-09-25T08:12:13.291Z,12.20
2018-09-25T08:12:52.449Z,12.20
2018-09-25T08:13:31.556Z,12.30
2018-09-25T08:14:10.636Z,12.40
2018-09-25T08:14:49.518Z,12.40
2018-09-25T08:15:28.652Z,12.50
2018-09-25T08:16:07.633Z,12.60
2018-09-25T08:16:46.695Z,12.60
2018-09-25T08:17:25.770Z,12.70
2018-09-25T08:18:05.061Z,12.70
2018-09-25T08:18:44.343Z,12.80
2018-09-25T08:19:23.497Z,12.80
2018-09-25T08:20:02.512Z,12.90
2018-09-25T08:20:41.631Z,12.90
2018-09-25T08:21:20.817Z,12.90
2018-09-25T08:22:00.141Z,13.00
2018-09-25T08:22:39.264Z,13.00
2018-09-25T08:23:18.286Z,13.00
2018-09-25T08:23:57.173Z,13.00
2018-09-25T08:24:36.121Z,13.00
2018-09-25T08:25:15.461Z,13.10
2018-09-25T08:25:54.500Z,13.10
2018-09-25T08:26:33.640Z,13.00
2018-09-25T08:27:13.296Z,13.20
2018-09-25T08:27:53.966Z,13.10
2018-09-25T08:28:33.015Z,13.10
2018-09-25T08:29:11.926Z,13.20
2018-09-25T08:29:51.202Z,13.20
2018-09-25T08:30:30.154Z,13.30
2018-09-25T08:31:09.104Z,13.30
2018-09-25T08:31:48.034Z,13.30
2018-09-25T08:32:27.796Z,13.40
2018-09-25T08:33:06.726Z,13.40
2018-09-25T08:33:46.010Z,13.40
2018-09-25T08:34:25.157Z,13.40
2018-09-25T08:35:04.356Z,13.50
2018-09-25T08:35:43.437Z,13.50
2018-09-25T08:36:22.473Z,13.50
2018-09-25T08:37:01.729Z,13.50
2018-09-25T08:37:40.769Z,13.60
2018-09-25T08:38:20.276Z,13.60
2018-09-25T08:38:59.526Z,13.70
2018-09-25T08:39:38.615Z,13.70
2018-09-25T08:40:17.799Z,13.70
2018-09-25T08:40:56.870Z,13.60
2018-09-25T08:41:35.966Z,13.50
2018-09-25T08:42:15.073Z,13.40
2018-09-25T08:42:54.180Z,13.50
2018-09-25T08:43:33.241Z,13.50